sensor_id;sensor_type;location;lat;lon;timestamp;pressure;altitude;pressure_sealevel;temperature;humidity
73306;BME280;61530;51.158;0.880;2023-06-19T00:00:24;1005.71;;;16.25;41.8358
73306;BME280;61530;51.158;0.880;2023-06-19T00:01:27;1005.71;;;16.25;41.8533
73306;BME280;61530;51.158;0.880;2023-06-19T00:02:30;1005.68;;;16.3125;41.1357
73306;BME280;61530;51.158;0.880;2023-06-19T00:03:33;1005.69;;;16.3125;42.2559
73306;BME280;61530;51.158;0.880;2023-06-19T00:04:36;1005.71;;;16.3125;41.7892
73306;BME280;61530;51.158;0.880;2023-06-19T00:05:39;1005.71;;;16.3125;41.9116
73306;BME280;61530;51.158;0.880;2023-06-19T00:06:42;1005.7;;;16.3125;42.1566
73306;BME280;61530;51.158;0.880;2023-06-19T00:07:45;1005.72;;;16.3125;41.9407
73306;BME280;61530;51.158;0.880;2023-06-19T00:08:48;1005.73;;;16.3125;42.419
73306;BME280;61530;51.158;0.880;2023-06-19T00:09:51;1005.78;;;16.375;42.0745
73306;BME280;61530;51.158;0.880;2023-06-19T00:10:54;1005.78;;;16.375;41.0599
73306;BME280;61530;51.158;0.880;2023-06-19T00:11:57;1005.77;;;16.3125;42.3664
73306;BME280;61530;51.158;0.880;2023-06-19T00:13:00;1005.77;;;16.3125;42.3778
73306;BME280;61530;51.158;0.880;2023-06-19T00:14:03;1005.76;;;16.25;42.6523
73306;BME280;61530;51.158;0.880;2023-06-19T00:15:07;1005.72;;;16.3125;42.0516
73306;BME280;61530;51.158;0.880;2023-06-19T00:16:09;1005.75;;;16.3125;41.7365
73306;BME280;61530;51.158;0.880;2023-06-19T00:17:12;1005.71;;;16.375;41.5497
73306;BME280;61530;51.158;0.880;2023-06-19T00:18:15;1005.74;;;16.1875;42.5288
73306;BME280;61530;51.158;0.880;2023-06-19T00:19:18;1005.78;;;16.1875;41.4331
73306;BME280;61530;51.158;0.880;2023-06-19T00:20:21;1005.77;;;16.1875;42.6104
73306;BME280;61530;51.158;0.880;2023-06-19T00:21:25;1005.82;;;16.125;42.0742
73306;BME280;61530;51.158;0.880;2023-06-19T00:22:28;1005.81;;;16.0625;42.1035
73306;BME280;61530;51.158;0.880;2023-06-19T00:23:31;1005.79;;;16.125;41.7072
73306;BME280;61530;51.158;0.880;2023-06-19T00:24:34;1005.79;;;16.1875;41.8472
73306;BME280;61530;51.158;0.880;2023-06-19T00:25:37;1005.81;;;16.1875;41.3807
73306;BME280;61530;51.158;0.880;2023-06-19T00:26:40;1005.81;;;16.1875;42.4948
73306;BME280;61530;51.158;0.880;2023-06-19T00:27:43;1005.8;;;16.1875;42.3431
73306;BME280;61530;51.158;0.880;2023-06-19T00:28:46;1005.79;;;16.25;41.0773
73306;BME280;61530;51.158;0.880;2023-06-19T00:29:50;1005.81;;;16.25;41.3574
73306;BME280;61530;51.158;0.880;2023-06-19T00:30:52;1005.82;;;16.25;41.3341
73306;BME280;61530;51.158;0.880;2023-06-19T00:31:55;1005.82;;;16.25;41.8299
73306;BME280;61530;51.158;0.880;2023-06-19T00:32:58;1005.82;;;16.25;42.74
73306;BME280;61530;51.158;0.880;2023-06-19T00:34:01;1005.86;;;16.25;41.4215
73306;BME280;61530;51.158;0.880;2023-06-19T00:35:05;1005.85;;;16.1875;41.5613
73306;BME280;61530;51.158;0.880;2023-06-19T00:36:09;1005.86;;;16.125;42.7447
73306;BME280;61530;51.158;0.880;2023-06-19T00:37:10;1005.85;;;16.0625;42.0857
73306;BME280;61530;51.158;0.880;2023-06-19T00:38:13;1005.88;;;16.125;42.0798
73306;BME280;61530;51.158;0.880;2023-06-19T00:39:16;1005.88;;;15.9375;41.9224
73306;BME280;61530;51.158;0.880;2023-06-19T00:40:26;1005.88;;;16.0;43.2393
73306;BME280;61530;51.158;0.880;2023-06-19T00:41:22;1005.88;;;16.0;42.7894
73306;BME280;61530;51.158;0.880;2023-06-19T00:42:25;1005.92;;;15.9375;42.5276
73306;BME280;61530;51.158;0.880;2023-06-19T00:43:28;1005.88;;;15.875;42.5632
73306;BME280;61530;51.158;0.880;2023-06-19T00:44:31;1005.84;;;16.0;42.3889
73306;BME280;61530;51.158;0.880;2023-06-19T00:45:35;1005.83;;;16.0;42.255
73306;BME280;61530;51.158;0.880;2023-06-19T00:46:38;1005.82;;;16.0625;43.8521
73306;BME280;61530;51.158;0.880;2023-06-19T00:47:40;1005.81;;;16.125;42.8559
73306;BME280;61530;51.158;0.880;2023-06-19T00:48:43;1005.84;;;16.0625;41.8061
73306;BME280;61530;51.158;0.880;2023-06-19T00:49:48;1005.84;;;16.0625;42.2957
73306;BME280;61530;51.158;0.880;2023-06-19T00:50:51;1005.83;;;16.0625;42.8075
73306;BME280;61530;51.158;0.880;2023-06-19T00:51:54;1005.81;;;16.0;43.4548
73306;BME280;61530;51.158;0.880;2023-06-19T00:52:58;1005.81;;;16.0;42.7716
73306;BME280;61530;51.158;0.880;2023-06-19T00:54:00;1005.8;;;16.0;43.0761
73306;BME280;61530;51.158;0.880;2023-06-19T00:55:05;1005.8;;;15.9375;43.5471
73306;BME280;61530;51.158;0.880;2023-06-19T00:56:06;1005.84;;;16.0;43.0884
73306;BME280;61530;51.158;0.880;2023-06-19T00:57:09;1005.85;;;15.9375;43.1467
73306;BME280;61530;51.158;0.880;2023-06-19T00:58:12;1005.85;;;16.125;43.5248
73306;BME280;61530;51.158;0.880;2023-06-19T00:59:17;1005.87;;;16.0625;43.4669
73306;BME280;61530;51.158;0.880;2023-06-19T01:00:18;1005.88;;;16.0;42.8539
73306;BME280;61530;51.158;0.880;2023-06-19T01:01:21;1005.86;;;16.0625;42.2081
73306;BME280;61530;51.158;0.880;2023-06-19T01:02:25;1005.89;;;16.0;42.1963
73306;BME280;61530;51.158;0.880;2023-06-19T01:03:27;1005.92;;;16.0;42.7957
73306;BME280;61530;51.158;0.880;2023-06-19T01:04:30;1005.91;;;16.0;42.9417
73306;BME280;61530;51.158;0.880;2023-06-19T01:05:33;1005.9;;;15.9375;42.1615
73306;BME280;61530;51.158;0.880;2023-06-19T01:06:42;1005.89;;;16.0;43.3035
73306;BME280;61530;51.158;0.880;2023-06-19T01:07:44;1005.9;;;16.0625;42.6852
73306;BME280;61530;51.158;0.880;2023-06-19T01:08:49;1005.85;;;15.9375;43.3198
73306;BME280;61530;51.158;0.880;2023-06-19T01:09:48;1005.88;;;16.0;42.5982
73306;BME280;61530;51.158;0.880;2023-06-19T01:10:51;1005.86;;;15.9375;42.5515
73306;BME280;61530;51.158;0.880;2023-06-19T01:11:54;1005.88;;;16.0;42.3709
73306;BME280;61530;51.158;0.880;2023-06-19T01:12:58;1005.86;;;15.9375;42.9474
73306;BME280;61530;51.158;0.880;2023-06-19T01:14:00;1005.9;;;16.0;42.8722
73306;BME280;61530;51.158;0.880;2023-06-19T01:15:03;1005.9;;;16.0;43.6063
73306;BME280;61530;51.158;0.880;2023-06-19T01:16:04;1005.92;;;15.9375;43.8621
73306;BME280;61530;51.158;0.880;2023-06-19T01:17:06;1005.97;;;15.9375;43.1392
73306;BME280;61530;51.158;0.880;2023-06-19T01:18:10;1005.94;;;15.875;43.7158
73306;BME280;61530;51.158;0.880;2023-06-19T01:19:18;1005.94;;;15.9375;43.0347
73306;BME280;61530;51.158;0.880;2023-06-19T01:20:15;1005.97;;;16.0;42.9365
73306;BME280;61530;51.158;0.880;2023-06-19T01:21:19;1005.95;;;16.0;42.6043
73306;BME280;61530;51.158;0.880;2023-06-19T01:22:26;1005.95;;;15.9375;42.3533
73306;BME280;61530;51.158;0.880;2023-06-19T01:23:24;1005.94;;;15.9375;44.1242
73306;BME280;61530;51.158;0.880;2023-06-19T01:24:27;1005.94;;;16.0;42.3943
73306;BME280;61530;51.158;0.880;2023-06-19T01:25:30;1005.94;;;15.9375;43.4841
73306;BME280;61530;51.158;0.880;2023-06-19T01:26:33;1005.95;;;16.0625;42.5402
73306;BME280;61530;51.158;0.880;2023-06-19T01:27:36;1005.96;;;16.0625;42.0334
73306;BME280;61530;51.158;0.880;2023-06-19T01:28:42;1005.98;;;16.0625;42.8207
73306;BME280;61530;51.158;0.880;2023-06-19T01:29:42;1005.98;;;16.1875;41.3282
73306;BME280;61530;51.158;0.880;2023-06-19T01:30:45;1006.0;;;16.0;42.6226
73306;BME280;61530;51.158;0.880;2023-06-19T01:31:54;1006.02;;;16.0625;42.2378
73306;BME280;61530;51.158;0.880;2023-06-19T01:32:56;1006.05;;;16.1875;41.4214
73306;BME280;61530;51.158;0.880;2023-06-19T01:33:56;1006.07;;;16.125;43.2986
73306;BME280;61530;51.158;0.880;2023-06-19T01:34:58;1006.07;;;16.0625;42.3077
73306;BME280;61530;51.158;0.880;2023-06-19T01:36:01;1006.07;;;16.0625;42.4535
73306;BME280;61530;51.158;0.880;2023-06-19T01:37:04;1006.07;;;16.125;42.1617
73306;BME280;61530;51.158;0.880;2023-06-19T01:38:07;1006.09;;;16.1875;42.576
73306;BME280;61530;51.158;0.880;2023-06-19T01:39:10;1006.09;;;16.1875;42.2319
73306;BME280;61530;51.158;0.880;2023-06-19T01:40:13;1006.08;;;16.0625;42.7276
73306;BME280;61530;51.158;0.880;2023-06-19T01:41:16;1006.09;;;16.125;41.9232
73306;BME280;61530;51.158;0.880;2023-06-19T01:42:18;1006.09;;;16.125;41.7072
73306;BME280;61530;51.158;0.880;2023-06-19T01:43:22;1006.07;;;16.1875;42.1675
73306;BME280;61530;51.158;0.880;2023-06-19T01:44:24;1006.1;;;16.0;43.3534
73306;BME280;61530;51.158;0.880;2023-06-19T01:45:28;1006.09;;;15.9375;42.423
73306;BME280;61530;51.158;0.880;2023-06-19T01:46:30;1006.1;;;15.9375;42.6043
73306;BME280;61530;51.158;0.880;2023-06-19T01:47:33;1006.13;;;15.9375;42.4937
73306;BME280;61530;51.158;0.880;2023-06-19T01:48:38;1006.14;;;16.0625;42.7559
73306;BME280;61530;51.158;0.880;2023-06-19T01:49:40;1006.13;;;15.9375;42.406
73306;BME280;61530;51.158;0.880;2023-06-19T01:50:45;1006.16;;;15.9375;42.278
73306;BME280;61530;51.158;0.880;2023-06-19T01:51:46;1006.15;;;15.9375;42.75
73306;BME280;61530;51.158;0.880;2023-06-19T01:52:49;1006.17;;;15.9375;42.8661
73306;BME280;61530;51.158;0.880;2023-06-19T01:53:52;1006.16;;;15.9375;42.919
73306;BME280;61530;51.158;0.880;2023-06-19T01:54:55;1006.19;;;16.0625;41.643
73306;BME280;61530;51.158;0.880;2023-06-19T01:55:58;1006.19;;;16.0;42.7158
73306;BME280;61530;51.158;0.880;2023-06-19T01:57:01;1006.17;;;16.0;41.8586
73306;BME280;61530;51.158;0.880;2023-06-19T01:58:04;1006.17;;;16.0;41.7188
73306;BME280;61530;51.158;0.880;2023-06-19T01:59:07;1006.23;;;15.875;41.8991
73306;BME280;61530;51.158;0.880;2023-06-19T02:00:11;1006.25;;;15.9375;42.3484
73306;BME280;61530;51.158;0.880;2023-06-19T02:01:13;1006.26;;;15.9375;41.7014
73306;BME280;61530;51.158;0.880;2023-06-19T02:02:16;1006.29;;;15.9375;42.0046
73306;BME280;61530;51.158;0.880;2023-06-19T02:03:19;1006.33;;;16.0;42.4012
73306;BME280;61530;51.158;0.880;2023-06-19T02:04:22;1006.32;;;16.0625;41.5498
73306;BME280;61530;51.158;0.880;2023-06-19T02:05:25;1006.34;;;16.0625;41.6782
73306;BME280;61530;51.158;0.880;2023-06-19T02:06:30;1006.37;;;16.0625;41.8881
73306;BME280;61530;51.158;0.880;2023-06-19T02:07:31;1006.35;;;16.0625;42.3882
73306;BME280;61530;51.158;0.880;2023-06-19T02:08:34;1006.36;;;15.9375;42.3415
73306;BME280;61530;51.158;0.880;2023-06-19T02:09:38;1006.38;;;15.9375;43.0001
73306;BME280;61530;51.158;0.880;2023-06-19T02:10:40;1006.37;;;15.9375;43.356
73306;BME280;61530;51.158;0.880;2023-06-19T02:11:43;1006.39;;;15.9375;43.2853
73306;BME280;61530;51.158;0.880;2023-06-19T02:12:46;1006.38;;;16.0;41.9924
73306;BME280;61530;51.158;0.880;2023-06-19T02:13:49;1006.36;;;16.0;42.896
73306;BME280;61530;51.158;0.880;2023-06-19T02:14:52;1006.34;;;16.0625;42.9544
73306;BME280;61530;51.158;0.880;2023-06-19T02:15:55;1006.32;;;16.0;41.3049
73306;BME280;61530;51.158;0.880;2023-06-19T02:16:58;1006.34;;;16.0;42.9544
73306;BME280;61530;51.158;0.880;2023-06-19T02:18:02;1006.4;;;16.0625;41.2991
73306;BME280;61530;51.158;0.880;2023-06-19T02:19:04;1006.42;;;16.0;42.5472
73306;BME280;61530;51.158;0.880;2023-06-19T02:20:08;1006.45;;;16.0625;40.7686
73306;BME280;61530;51.158;0.880;2023-06-19T02:21:10;1006.44;;;15.9375;41.4332
73306;BME280;61530;51.158;0.880;2023-06-19T02:22:13;1006.47;;;15.9375;42.028
73306;BME280;61530;51.158;0.880;2023-06-19T02:23:17;1006.47;;;16.0625;42.4767
73306;BME280;61530;51.158;0.880;2023-06-19T02:24:20;1006.47;;;16.0;42.1212
73306;BME280;61530;51.158;0.880;2023-06-19T02:25:23;1006.51;;;16.0625;42.3009
73306;BME280;61530;51.158;0.880;2023-06-19T02:26:26;1006.51;;;16.0625;42.7207
73306;BME280;61530;51.158;0.880;2023-06-19T02:27:29;1006.5;;;16.0;41.2699
73306;BME280;61530;51.158;0.880;2023-06-19T02:28:32;1006.53;;;16.0;41.742
73306;BME280;61530;51.158;0.880;2023-06-19T02:29:35;1006.51;;;16.0;41.5264
73306;BME280;61530;51.158;0.880;2023-06-19T02:30:38;1006.56;;;16.0;41.6081
73306;BME280;61530;51.158;0.880;2023-06-19T02:31:41;1006.56;;;16.0625;41.4099
73306;BME280;61530;51.158;0.880;2023-06-19T02:32:44;1006.59;;;15.9375;41.8642
73306;BME280;61530;51.158;0.880;2023-06-19T02:33:47;1006.59;;;15.9375;42.1092
73306;BME280;61530;51.158;0.880;2023-06-19T02:34:50;1006.61;;;15.875;42.2485
73306;BME280;61530;51.158;0.880;2023-06-19T02:35:53;1006.62;;;15.875;42.0738
73306;BME280;61530;51.158;0.880;2023-06-19T02:36:56;1006.62;;;15.8125;41.7009
73306;BME280;61530;51.158;0.880;2023-06-19T02:37:59;1006.62;;;15.75;41.4506
73306;BME280;61530;51.158;0.880;2023-06-19T02:39:04;1006.65;;;15.75;42.8547
73306;BME280;61530;51.158;0.880;2023-06-19T02:40:06;1006.67;;;15.8125;42.5116
73306;BME280;61530;51.158;0.880;2023-06-19T02:41:08;1006.69;;;15.875;41.911
73306;BME280;61530;51.158;0.880;2023-06-19T02:42:11;1006.68;;;15.9375;42.2605
73306;BME280;61530;51.158;0.880;2023-06-19T02:43:14;1006.69;;;15.9375;42.4413
73306;BME280;61530;51.158;0.880;2023-06-19T02:44:19;1006.72;;;15.9375;42.8437
73306;BME280;61530;51.158;0.880;2023-06-19T02:45:22;1006.75;;;15.9375;41.9462
73306;BME280;61530;51.158;0.880;2023-06-19T02:46:25;1006.74;;;15.9375;42.2553
73306;BME280;61530;51.158;0.880;2023-06-19T02:47:28;1006.74;;;15.875;42.7214
73306;BME280;61530;51.158;0.880;2023-06-19T02:48:31;1006.75;;;15.9375;42.0627
73306;BME280;61530;51.158;0.880;2023-06-19T02:49:34;1006.78;;;15.9375;41.4215
73306;BME280;61530;51.158;0.880;2023-06-19T02:50:37;1006.84;;;15.9375;41.853
73306;BME280;61530;51.158;0.880;2023-06-19T02:51:40;1006.83;;;16.0;42.1617
73306;BME280;61530;51.158;0.880;2023-06-19T02:52:43;1006.88;;;15.9375;42.5163
73306;BME280;61530;51.158;0.880;2023-06-19T02:53:46;1006.89;;;15.875;42.7492
73306;BME280;61530;51.158;0.880;2023-06-19T02:54:49;1006.91;;;15.9375;42.9303
73306;BME280;61530;51.158;0.880;2023-06-19T02:55:52;1006.94;;;15.9375;41.9808
73306;BME280;61530;51.158;0.880;2023-06-19T02:56:55;1006.93;;;15.9375;41.6779
73306;BME280;61530;51.158;0.880;2023-06-19T02:57:58;1006.94;;;15.875;42.7271
73306;BME280;61530;51.158;0.880;2023-06-19T02:59:01;1007.01;;;15.875;41.334
73306;BME280;61530;51.158;0.880;2023-06-19T03:00:05;1007.03;;;15.9375;41.2291
73306;BME280;61530;51.158;0.880;2023-06-19T03:01:07;1007.03;;;16.0;42.2839
73306;BME280;61530;51.158;0.880;2023-06-19T03:02:10;1007.06;;;15.8125;41.7421
73306;BME280;61530;51.158;0.880;2023-06-19T03:03:13;1007.06;;;15.875;41.4564
73306;BME280;61530;51.158;0.880;2023-06-19T03:04:16;1007.09;;;15.875;42.7793
73306;BME280;61530;51.158;0.880;2023-06-19T03:05:19;1007.09;;;16.0;42.2376
73306;BME280;61530;51.158;0.880;2023-06-19T03:06:22;1007.16;;;16.0;41.4448
73306;BME280;61530;51.158;0.880;2023-06-19T03:07:25;1007.15;;;15.9375;41.439
73306;BME280;61530;51.158;0.880;2023-06-19T03:08:28;1007.15;;;15.875;41.2641
73306;BME280;61530;51.158;0.880;2023-06-19T03:09:31;1007.14;;;15.875;41.9695
73306;BME280;61530;51.158;0.880;2023-06-19T03:10:34;1007.14;;;15.9375;41.4273
73306;BME280;61530;51.158;0.880;2023-06-19T03:11:37;1007.11;;;15.875;41.6431
73306;BME280;61530;51.158;0.880;2023-06-19T03:12:40;1007.09;;;15.875;42.0454
73306;BME280;61530;51.158;0.880;2023-06-19T03:13:47;1007.12;;;15.875;41.7072
73306;BME280;61530;51.158;0.880;2023-06-19T03:14:46;1007.1;;;15.875;41.3982
73306;BME280;61530;51.158;0.880;2023-06-19T03:15:49;1007.1;;;15.875;41.6837
73306;BME280;61530;51.158;0.880;2023-06-19T03:16:52;1007.13;;;15.9375;41.0659
73306;BME280;61530;51.158;0.880;2023-06-19T03:17:55;1007.17;;;15.875;42.0394
73306;BME280;61530;51.158;0.880;2023-06-19T03:18:58;1007.2;;;15.875;41.5205
73306;BME280;61530;51.158;0.880;2023-06-19T03:20:01;1007.23;;;15.875;41.7594
73306;BME280;61530;51.158;0.880;2023-06-19T03:21:04;1007.23;;;15.875;42.0333
73306;BME280;61530;51.158;0.880;2023-06-19T03:22:07;1007.25;;;15.8125;41.9051
73306;BME280;61530;51.158;0.880;2023-06-19T03:23:10;1007.26;;;15.8125;41.672
73306;BME280;61530;51.158;0.880;2023-06-19T03:24:13;1007.29;;;15.8125;41.4156
73306;BME280;61530;51.158;0.880;2023-06-19T03:25:16;1007.29;;;15.8125;41.9462
73306;BME280;61530;51.158;0.880;2023-06-19T03:26:20;1007.28;;;15.8125;41.334
73306;BME280;61530;51.158;0.880;2023-06-19T03:27:22;1007.28;;;15.8125;41.5147
73306;BME280;61530;51.158;0.880;2023-06-19T03:28:25;1007.3;;;15.875;41.3282
73306;BME280;61530;51.158;0.880;2023-06-19T03:29:28;1007.31;;;15.8125;42.0512
73306;BME280;61530;51.158;0.880;2023-06-19T03:30:31;1007.32;;;15.75;42.1679
73306;BME280;61530;51.158;0.880;2023-06-19T03:31:34;1007.33;;;15.8125;41.8819
73306;BME280;61530;51.158;0.880;2023-06-19T03:32:37;1007.32;;;15.8125;41.5731
73306;BME280;61530;51.158;0.880;2023-06-19T03:33:40;1007.3;;;15.8125;41.3806
73306;BME280;61530;51.158;0.880;2023-06-19T03:34:44;1007.31;;;15.75;41.7533
73306;BME280;61530;51.158;0.880;2023-06-19T03:35:47;1007.31;;;15.75;41.5379
73306;BME280;61530;51.158;0.880;2023-06-19T03:36:50;1007.34;;;15.8125;42.1495
73306;BME280;61530;51.158;0.880;2023-06-19T03:37:53;1007.36;;;15.8125;42.1792
73306;BME280;61530;51.158;0.880;2023-06-19T03:38:56;1007.35;;;15.8125;41.6837
73306;BME280;61530;51.158;0.880;2023-06-19T03:39:59;1007.37;;;15.6875;41.1008
73306;BME280;61530;51.158;0.880;2023-06-19T03:41:02;1007.39;;;15.8125;41.2057
73306;BME280;61530;51.158;0.880;2023-06-19T03:42:06;1007.38;;;15.8125;41.6897
73306;BME280;61530;51.158;0.880;2023-06-19T03:43:08;1007.4;;;15.75;41.8996
73306;BME280;61530;51.158;0.880;2023-06-19T03:44:11;1007.39;;;15.8125;41.8062
73306;BME280;61530;51.158;0.880;2023-06-19T03:45:14;1007.4;;;15.75;41.5147
73306;BME280;61530;51.158;0.880;2023-06-19T03:46:17;1007.4;;;15.8125;41.6484
73306;BME280;61530;51.158;0.880;2023-06-19T03:47:20;1007.4;;;15.6875;41.8637
73306;BME280;61530;51.158;0.880;2023-06-19T03:48:23;1007.4;;;15.6875;41.7126
73306;BME280;61530;51.158;0.880;2023-06-19T03:49:26;1007.42;;;15.75;43.4421
73306;BME280;61530;51.158;0.880;2023-06-19T03:50:29;1007.44;;;15.6875;41.6893
73306;BME280;61530;51.158;0.880;2023-06-19T03:51:32;1007.46;;;15.6875;42.3998
73306;BME280;61530;51.158;0.880;2023-06-19T03:52:35;1007.49;;;15.6875;41.6718
73306;BME280;61530;51.158;0.880;2023-06-19T03:53:38;1007.48;;;15.625;42.2138
73306;BME280;61530;51.158;0.880;2023-06-19T03:54:41;1007.48;;;15.625;40.8853
73306;BME280;61530;51.158;0.880;2023-06-19T03:55:44;1007.51;;;15.625;41.8701
73306;BME280;61530;51.158;0.880;2023-06-19T03:56:47;1007.51;;;15.75;41.1009
73306;BME280;61530;51.158;0.880;2023-06-19T03:57:50;1007.51;;;15.6875;40.5009
73306;BME280;61530;51.158;0.880;2023-06-19T03:58:53;1007.55;;;15.6875;42.4236
73306;BME280;61530;51.158;0.880;2023-06-19T03:59:56;1007.53;;;15.625;40.6406
73306;BME280;61530;51.158;0.880;2023-06-19T04:00:59;1007.55;;;15.6875;41.4097
73306;BME280;61530;51.158;0.880;2023-06-19T04:02:02;1007.57;;;15.6875;41.8641
73306;BME280;61530;51.158;0.880;2023-06-19T04:03:05;1007.53;;;15.6875;41.9108
73306;BME280;61530;51.158;0.880;2023-06-19T04:04:08;1007.56;;;15.625;41.5904
73306;BME280;61530;51.158;0.880;2023-06-19T04:05:11;1007.56;;;15.6875;41.1417
73306;BME280;61530;51.158;0.880;2023-06-19T04:06:14;1007.57;;;15.625;41.1534
73306;BME280;61530;51.158;0.880;2023-06-19T04:07:17;1007.58;;;15.6875;41.4212
73306;BME280;61530;51.158;0.880;2023-06-19T04:08:20;1007.58;;;15.625;41.724
73306;BME280;61530;51.158;0.880;2023-06-19T04:09:23;1007.59;;;15.5;41.3631
73306;BME280;61530;51.158;0.880;2023-06-19T04:10:26;1007.58;;;15.5625;41.8286
73306;BME280;61530;51.158;0.880;2023-06-19T04:11:29;1007.63;;;15.5;42.0386
73306;BME280;61530;51.158;0.880;2023-06-19T04:12:32;1007.62;;;15.5;42.2891
73306;BME280;61530;51.158;0.880;2023-06-19T04:13:35;1007.63;;;15.5625;41.3747
73306;BME280;61530;51.158;0.880;2023-06-19T04:14:38;1007.64;;;15.625;41.8349
73306;BME280;61530;51.158;0.880;2023-06-19T04:15:41;1007.64;;;15.5625;41.9336
73306;BME280;61530;51.158;0.880;2023-06-19T04:16:44;1007.64;;;15.625;42.1203
73306;BME280;61530;51.158;0.880;2023-06-19T04:17:47;1007.62;;;15.625;42.2019
73306;BME280;61530;51.158;0.880;2023-06-19T04:18:50;1007.63;;;15.625;41.0485
73306;BME280;61530;51.158;0.880;2023-06-19T04:19:53;1007.66;;;15.625;40.7689
73306;BME280;61530;51.158;0.880;2023-06-19T04:20:56;1007.65;;;15.625;40.5591
73306;BME280;61530;51.158;0.880;2023-06-19T04:21:59;1007.66;;;15.625;41.0252
73306;BME280;61530;51.158;0.880;2023-06-19T04:23:02;1007.66;;;15.6875;40.7281
73306;BME280;61530;51.158;0.880;2023-06-19T04:24:05;1007.67;;;15.625;40.1392
73306;BME280;61530;51.158;0.880;2023-06-19T04:25:09;1007.7;;;15.5625;41.2408
73306;BME280;61530;51.158;0.880;2023-06-19T04:26:11;1007.75;;;15.625;41.7594
73306;BME280;61530;51.158;0.880;2023-06-19T04:27:14;1007.74;;;15.5625;41.573
73306;BME280;61530;51.158;0.880;2023-06-19T04:28:17;1007.77;;;15.625;41.7362
73306;BME280;61530;51.158;0.880;2023-06-19T04:29:20;1007.79;;;15.625;41.6079
73306;BME280;61530;51.158;0.880;2023-06-19T04:30:23;1007.78;;;15.6875;41.5614
73306;BME280;61530;51.158;0.880;2023-06-19T04:31:26;1007.8;;;15.6875;40.8269
73306;BME280;61530;51.158;0.880;2023-06-19T04:32:29;1007.81;;;15.6875;41.5497
73306;BME280;61530;51.158;0.880;2023-06-19T04:33:32;1007.81;;;15.6875;41.6022
73306;BME280;61530;51.158;0.880;2023-06-19T04:34:35;1007.82;;;15.6875;41.4914
73306;BME280;61530;51.158;0.880;2023-06-19T04:35:38;1007.81;;;15.75;40.7803
73306;BME280;61530;51.158;0.880;2023-06-19T04:36:41;1007.81;;;15.75;40.8386
73306;BME280;61530;51.158;0.880;2023-06-19T04:37:44;1007.81;;;15.75;41.2816
73306;BME280;61530;51.158;0.880;2023-06-19T04:38:47;1007.83;;;15.6875;41.3865
73306;BME280;61530;51.158;0.880;2023-06-19T04:39:50;1007.84;;;15.75;41.3282
73306;BME280;61530;51.158;0.880;2023-06-19T04:40:55;1007.85;;;15.75;40.6811
73306;BME280;61530;51.158;0.880;2023-06-19T04:41:58;1007.86;;;15.75;40.862
73306;BME280;61530;51.158;0.880;2023-06-19T04:43:02;1007.88;;;15.75;40.6289
73306;BME280;61530;51.158;0.880;2023-06-19T04:44:05;1007.88;;;15.75;40.5358
73306;BME280;61530;51.158;0.880;2023-06-19T04:45:08;1007.89;;;15.6875;41.6953
73306;BME280;61530;51.158;0.880;2023-06-19T04:46:10;1007.87;;;15.75;41.3807
73306;BME280;61530;51.158;0.880;2023-06-19T04:47:17;1007.88;;;15.75;41.7829
73306;BME280;61530;51.158;0.880;2023-06-19T04:48:16;1007.87;;;15.8125;41.5205
73306;BME280;61530;51.158;0.880;2023-06-19T04:49:20;1007.87;;;15.75;41.5614
73306;BME280;61530;51.158;0.880;2023-06-19T04:50:23;1007.87;;;15.875;41.4682
73306;BME280;61530;51.158;0.880;2023-06-19T04:51:26;1007.86;;;15.875;40.7799
73306;BME280;61530;51.158;0.880;2023-06-19T04:52:29;1007.87;;;15.9375;41.2466
73306;BME280;61530;51.158;0.880;2023-06-19T04:53:32;1007.9;;;15.875;41.1008
73306;BME280;61530;51.158;0.880;2023-06-19T04:54:36;1007.9;;;15.875;41.1358
73306;BME280;61530;51.158;0.880;2023-06-19T04:55:39;1007.9;;;15.9375;41.3807
73306;BME280;61530;51.158;0.880;2023-06-19T04:56:41;1007.9;;;15.9375;41.6431
73306;BME280;61530;51.158;0.880;2023-06-19T04:57:44;1007.89;;;16.0;40.7859
73306;BME280;61530;51.158;0.880;2023-06-19T04:58:47;1007.93;;;15.9375;41.3632
73306;BME280;61530;51.158;0.880;2023-06-19T04:59:50;1007.93;;;16.0;41.1183
73306;BME280;61530;51.158;0.880;2023-06-19T05:00:53;1007.94;;;16.0;40.7626
73306;BME280;61530;51.158;0.880;2023-06-19T05:01:57;1007.94;;;16.0625;42.5933
73306;BME280;61530;51.158;0.880;2023-06-19T05:03:00;1007.94;;;15.9375;41.4332
73306;BME280;61530;51.158;0.880;2023-06-19T05:04:03;1007.95;;;15.9375;41.6781
73306;BME280;61530;51.158;0.880;2023-06-19T05:05:06;1007.95;;;15.9375;41.8123
73306;BME280;61530;51.158;0.880;2023-06-19T05:06:08;1007.95;;;16.0;41.3807
73306;BME280;61530;51.158;0.880;2023-06-19T05:07:11;1007.93;;;15.9375;41.4332
73306;BME280;61530;51.158;0.880;2023-06-19T05:08:14;1007.92;;;16.0;40.7452
73306;BME280;61530;51.158;0.880;2023-06-19T05:09:17;1007.92;;;15.9375;41.7481
73306;BME280;61530;51.158;0.880;2023-06-19T05:10:20;1007.93;;;16.0;41.2757
73306;BME280;61530;51.158;0.880;2023-06-19T05:11:23;1007.9;;;16.0625;40.8793
73306;BME280;61530;51.158;0.880;2023-06-19T05:12:26;1007.9;;;16.0;41.4039
73306;BME280;61530;51.158;0.880;2023-06-19T05:13:30;1007.91;;;15.9375;40.8385
73306;BME280;61530;51.158;0.880;2023-06-19T05:14:33;1007.91;;;15.9375;41.3515
73306;BME280;61530;51.158;0.880;2023-06-19T05:15:35;1007.9;;;15.9375;41.5262
73306;BME280;61530;51.158;0.880;2023-06-19T05:16:38;1007.9;;;15.75;41.707
73306;BME280;61530;51.158;0.880;2023-06-19T05:17:41;1007.88;;;15.75;43.5043
73306;BME280;61530;51.158;0.880;2023-06-19T05:18:44;1007.9;;;15.75;42.2245
73306;BME280;61530;51.158;0.880;2023-06-19T05:19:48;1007.89;;;15.8125;42.1667
73306;BME280;61530;51.158;0.880;2023-06-19T05:20:50;1007.88;;;15.8125;41.4564
73306;BME280;61530;51.158;0.880;2023-06-19T05:21:54;1007.89;;;15.8125;41.7361
73306;BME280;61530;51.158;0.880;2023-06-19T05:22:56;1007.88;;;15.75;41.3864
73306;BME280;61530;51.158;0.880;2023-06-19T05:23:59;1007.89;;;15.875;41.6896
73306;BME280;61530;51.158;0.880;2023-06-19T05:25:04;1007.92;;;15.875;41.0834